Queen City, Vermont
Current Conditions -  °F | °C
As of 3:54 PM on Sunday 23 Nov 2014 (Local Time) from KBTV Reporting Station
Broken Clouds Broken Clouds  
Wind Chill: 49°   Ceiling: 12000
Heat Index: 49°   Visibility: 10mi
Dew Point: 39°   Wind: 0mph
Humidity: 69%   Direction: NA
Pressure: 30.04"   Gusts: NA
Location:  44.446°N, 73.1725°W
Report Text: KBTV 232054Z 00000KT 10SM FEW050 BKN120 09/04 A3004 RMK AO2 SLP174 T00940039 58004
Loading
Personal Weather Stations






























Interactive Weather Map New forecast layout! Learn more

10-Day Weather Forecast

Advertisements
Track Severe Weather on mobile